Weather at Mlynica Airfield

Public forecast

Using degrees Celsius for public forecast. Weather courtesy of forecast.io.

Closest aviation weather report (METAR) to Mlynica Airfield

Closest report is Poprad-Tatry Airport, 3.6 nm (6.6 km) WSW.

2024/05/20 19:00 (retrieved 23 minutes ago)

LZTT 201900Z VRB02KT 9999 FEW060CB 13/12 Q1015

Closest aviation forecast (TAF) to Mlynica Airfield

Closest forecast is Poprad-Tatry Airport, 3.6 nm (6.6 km) WSW.

2024/05/20 18:16 (retrieved 1 hour ago)

TAF LZTT 201715Z 2018/2118 22004KT 9999 FEW040 TEMPO 2021/2106 1000 BCFG BR BKN002 PROB30 TEMPO 2100/2106 0200 FG BECMG 2107/2109 10008KT TEMPO 2112/2118 -TSRA FEW030 SCT040CB